createdAt,value
2022-08-20T00:02:14.607Z,100571.69
2022-08-20T00:04:42.388Z,100561.06
2022-08-20T00:07:10.599Z,100556.13
2022-08-20T00:09:39.014Z,100559.16
2022-08-20T00:12:07.278Z,100562.69
2022-08-20T00:14:35.572Z,100566.53
2022-08-20T00:17:05.267Z,100571.50
2022-08-20T00:19:32.880Z,100569.38
2022-08-20T00:22:00.880Z,100558.72
2022-08-20T00:24:28.491Z,100553.50
2022-08-20T00:26:56.453Z,100551.16
2022-08-20T00:29:23.992Z,100558.69
2022-08-20T00:31:51.877Z,100553.88
2022-08-20T00:34:19.909Z,100566.88
2022-08-20T00:36:48.126Z,100566.19
2022-08-20T00:39:16.094Z,100579.25
2022-08-20T00:41:43.644Z,100570.44
2022-08-20T00:44:11.394Z,100569.28
2022-08-20T00:46:41.103Z,100571.13
2022-08-20T00:49:12.498Z,100566.75
2022-08-20T00:51:45.224Z,100565.94
2022-08-20T00:54:21.597Z,100560.63
2022-08-20T00:57:01.574Z,100555.50
2022-08-20T00:59:32.710Z,100563.47
2022-08-20T01:02:01.179Z,100573.25
2022-08-20T01:04:33.645Z,100573.63
2022-08-20T01:07:03.115Z,100566.97
2022-08-20T01:09:49.836Z,100563.28
2022-08-20T01:12:19.993Z,100556.28
2022-08-20T01:14:48.172Z,100559.97
2022-08-20T01:17:20.566Z,100557.72
2022-08-20T01:19:50.575Z,100556.34
2022-08-20T01:22:46.954Z,100553.66
2022-08-20T01:25:23.933Z,100557.34
2022-08-20T01:27:55.541Z,100554.00
2022-08-20T01:30:27.605Z,100550.00
2022-08-20T01:32:55.905Z,100548.31
2022-08-20T01:35:25.258Z,100550.50
2022-08-20T01:37:54.375Z,100555.69
2022-08-20T01:40:40.929Z,100545.84
2022-08-20T01:43:09.945Z,100543.47
2022-08-20T01:45:40.147Z,100542.78
2022-08-20T01:48:08.560Z,100530.59
2022-08-20T01:50:41.853Z,100524.44
2022-08-20T01:53:25.263Z,100527.34
2022-08-20T01:55:53.742Z,100527.69
2022-08-20T01:58:22.872Z,100524.72
2022-08-20T02:00:50.457Z,100522.19
2022-08-20T02:03:18.362Z,100521.81
2022-08-20T02:05:46.262Z,100520.31
2022-08-20T02:08:13.975Z,100516.28
2022-08-20T02:10:41.903Z,100520.97
2022-08-20T02:13:10.252Z,100523.44
2022-08-20T02:15:39.730Z,100523.09
2022-08-20T02:18:15.722Z,100532.75
2022-08-20T02:20:45.074Z,100522.88
2022-08-20T02:23:13.455Z,100522.00
2022-08-20T02:25:44.207Z,100528.53
2022-08-20T02:28:15.155Z,100525.38
2022-08-20T02:30:46.991Z,100522.06
2022-08-20T02:33:16.468Z,100514.06
2022-08-20T02:35:47.723Z,100515.94
2022-08-20T02:38:16.300Z,100515.25
2022-08-20T02:40:45.714Z,100510.75
2022-08-20T02:43:14.559Z,100508.72
2022-08-20T02:45:44.145Z,100505.06
2022-08-20T02:48:21.304Z,100503.38
2022-08-20T02:50:55.940Z,100503.69
2022-08-20T02:53:26.247Z,100496.72
2022-08-20T02:55:53.754Z,100500.41
2022-08-20T02:58:23.443Z,100488.78
2022-08-20T03:00:51.703Z,100485.47
2022-08-20T03:03:22.954Z,100492.63
2022-08-20T03:05:54.044Z,100489.94
2022-08-20T03:08:22.854Z,100496.72
2022-08-20T03:10:51.229Z,100487.56
2022-08-20T03:13:20.940Z,100489.91
2022-08-20T03:15:56.511Z,100485.38
2022-08-20T03:18:29.464Z,100490.38
2022-08-20T03:20:57.687Z,100496.22
2022-08-20T03:23:25.922Z,100507.63
2022-08-20T03:25:53.586Z,100506.44
2022-08-20T03:28:21.463Z,100510.13
2022-08-20T03:30:50.366Z,100510.09
2022-08-20T03:33:20.232Z,100503.44
2022-08-20T03:35:48.599Z,100506.13
2022-08-20T03:38:18.702Z,100505.44
2022-08-20T03:41:00.864Z,100493.66
2022-08-20T03:43:29.228Z,100492.50
2022-08-20T03:45:57.343Z,100477.66
2022-08-20T03:48:25.771Z,100483.97
2022-08-20T03:50:53.655Z,100493.78
2022-08-20T03:53:22.907Z,100501.09
2022-08-20T03:55:53.706Z,100496.16
2022-08-20T03:58:34.800Z,100500.78
2022-08-20T04:01:06.324Z,100501.78
2022-08-20T04:03:35.585Z,100490.13
2022-08-20T04:06:04.099Z,100491.78
2022-08-20T04:08:31.667Z,100507.06
2022-08-20T04:11:00.004Z,100507.94
2022-08-20T04:13:30.004Z,100512.25
2022-08-20T04:16:01.346Z,100519.59
2022-08-20T04:18:28.885Z,100512.13
2022-08-20T04:20:57.396Z,100508.25
2022-08-20T04:23:25.430Z,100504.78
2022-08-20T04:25:56.582Z,100501.78
2022-08-20T04:28:29.098Z,100508.78
2022-08-20T04:30:59.864Z,100510.94
2022-08-20T04:33:33.980Z,100508.47
2022-08-20T04:36:06.064Z,100512.94
2022-08-20T04:38:49.960Z,100509.63
2022-08-20T04:41:24.129Z,100511.13
2022-08-20T04:43:54.535Z,100507.44
2022-08-20T04:46:25.991Z,100499.78
2022-08-20T04:48:54.440Z,100506.09
2022-08-20T04:51:23.543Z,100512.41
2022-08-20T04:53:57.598Z,100510.56
2022-08-20T04:56:28.884Z,100525.25
2022-08-20T04:59:00.359Z,100532.72
2022-08-20T05:01:29.168Z,100525.72
2022-08-20T05:03:58.489Z,100523.06
2022-08-20T05:06:30.659Z,100534.06
2022-08-20T05:09:00.490Z,100523.59
2022-08-20T05:11:34.138Z,100522.59
2022-08-20T05:14:08.007Z,100532.41
2022-08-20T05:16:40.997Z,100530.38
2022-08-20T05:19:12.954Z,100518.09
2022-08-20T05:21:41.459Z,100532.72
2022-08-20T05:24:10.481Z,100523.34
2022-08-20T05:26:38.740Z,100532.34
2022-08-20T05:29:07.535Z,100520.81
2022-08-20T05:31:35.690Z,100518.97
2022-08-20T05:34:10.014Z,100520.22
2022-08-20T05:36:41.124Z,100532.13
2022-08-20T05:39:10.477Z,100524.38
2022-08-20T05:41:39.488Z,100528.59
2022-08-20T05:44:13.615Z,100526.88
2022-08-20T05:46:43.579Z,100531.59
2022-08-20T05:49:15.556Z,100534.19
2022-08-20T05:51:43.818Z,100536.03
2022-08-20T05:54:11.776Z,100528.19
2022-08-20T05:56:39.695Z,100538.31
2022-08-20T05:59:09.573Z,100538.91
2022-08-20T06:01:39.673Z,100544.94
2022-08-20T06:04:26.968Z,100536.09
2022-08-20T06:07:01.606Z,100530.94
2022-08-20T06:09:32.657Z,100536.88
2022-08-20T06:12:07.800Z,100536.69
2022-08-20T06:14:35.752Z,100534.13
2022-08-20T06:17:06.707Z,100536.88
2022-08-20T06:19:36.481Z,100540.03
2022-08-20T06:22:18.117Z,100547.13
2022-08-20T06:24:51.851Z,100549.50
2022-08-20T06:27:20.159Z,100546.91
2022-08-20T06:29:48.710Z,100548.00
2022-08-20T06:32:16.381Z,100559.44
2022-08-20T06:34:49.941Z,100547.69
2022-08-20T06:37:21.992Z,100544.66
2022-08-20T06:39:53.436Z,100556.66
2022-08-20T06:42:22.143Z,100557.22
2022-08-20T06:44:50.917Z,100569.88
2022-08-20T06:47:21.156Z,100571.63
2022-08-20T06:49:50.023Z,100573.28
2022-08-20T06:52:18.367Z,100571.41
2022-08-20T06:54:46.513Z,100562.88
2022-08-20T06:57:14.590Z,100569.91
2022-08-20T06:59:42.577Z,100572.09
2022-08-20T07:02:10.519Z,100565.91
2022-08-20T07:04:38.220Z,100560.63
2022-08-20T07:07:06.170Z,100561.38
2022-08-20T07:09:34.644Z,100556.34
2022-08-20T07:12:03.789Z,100555.97
2022-08-20T07:14:31.804Z,100561.63
2022-08-20T07:17:03.421Z,100563.44
2022-08-20T07:19:31.613Z,100567.78
2022-08-20T07:22:00.096Z,100569.81
2022-08-20T07:24:33.235Z,100567.97
2022-08-20T07:27:02.166Z,100561.09
2022-08-20T07:29:49.878Z,100560.94
2022-08-20T07:32:50.112Z,100571.66
2022-08-20T07:35:19.164Z,100572.34
2022-08-20T07:37:49.630Z,100571.06
2022-08-20T07:40:25.880Z,100569.13
2022-08-20T07:42:56.390Z,100579.66
2022-08-20T07:45:24.919Z,100582.72
2022-08-20T07:47:56.687Z,100575.69
2022-08-20T07:50:26.736Z,100580.25
2022-08-20T07:52:54.825Z,100586.72
2022-08-20T07:55:22.783Z,100577.53
2022-08-20T07:57:51.338Z,100582.19
2022-08-20T08:00:21.671Z,100580.13
2022-08-20T08:02:49.296Z,100577.28
2022-08-20T08:05:18.809Z,100582.66
2022-08-20T08:07:46.577Z,100580.59
2022-08-20T08:10:18.609Z,100577.47
2022-08-20T08:12:50.906Z,100589.94
2022-08-20T08:15:25.446Z,100590.97
2022-08-20T08:17:56.385Z,100594.84
2022-08-20T08:20:24.311Z,100603.38
2022-08-20T08:22:53.842Z,100592.41
2022-08-20T08:25:22.265Z,100597.16
2022-08-20T08:27:50.307Z,100588.97
2022-08-20T08:30:18.264Z,100587.09
2022-08-20T08:33:04.872Z,100584.00
2022-08-20T08:35:32.773Z,100586.03
2022-08-20T08:38:02.568Z,100580.78
2022-08-20T08:40:32.586Z,100586.25
2022-08-20T08:43:04.350Z,100597.22
2022-08-20T08:45:43.876Z,100597.84
2022-08-20T08:48:18.410Z,100597.03
2022-08-20T08:50:53.253Z,100604.53
2022-08-20T08:53:37.541Z,100604.84
2022-08-20T08:56:06.624Z,100605.28
2022-08-20T08:58:35.444Z,100602.81
2022-08-20T09:01:09.884Z,100594.50
2022-08-20T09:03:57.712Z,100592.34
2022-08-20T09:06:28.267Z,100594.66
2022-08-20T09:09:07.176Z,100599.00
2022-08-20T09:11:50.708Z,100590.19
2022-08-20T09:14:19.125Z,100596.06
2022-08-20T09:16:53.215Z,100590.63
2022-08-20T09:19:22.146Z,100596.56
2022-08-20T09:21:50.293Z,100603.00
2022-08-20T09:24:18.133Z,100597.13
2022-08-20T09:26:46.166Z,100603.28
2022-08-20T09:29:14.013Z,100595.13
2022-08-20T09:31:43.010Z,100590.66
2022-08-20T09:34:12.821Z,100594.66
2022-08-20T09:36:40.265Z,100603.56
2022-08-20T09:39:09.994Z,100594.69
2022-08-20T09:41:37.527Z,100596.53
2022-08-20T09:44:05.128Z,100594.84
2022-08-20T09:46:33.099Z,100595.88
2022-08-20T09:49:00.628Z,100584.13
2022-08-20T09:51:28.215Z,100589.75
2022-08-20T09:53:56.632Z,100591.28
2022-08-20T09:56:25.280Z,100584.19
2022-08-20T09:58:58.006Z,100585.44
2022-08-20T10:01:28.204Z,100586.94
2022-08-20T10:03:55.751Z,100581.69
2022-08-20T10:06:23.536Z,100575.91
2022-08-20T10:08:51.157Z,100581.38
2022-08-20T10:11:19.365Z,100580.28
2022-08-20T10:13:46.848Z,100577.75
2022-08-20T10:16:14.396Z,100577.97
2022-08-20T10:18:42.692Z,100569.94
2022-08-20T10:21:13.266Z,100572.38
2022-08-20T10:23:41.486Z,100567.59
2022-08-20T10:26:10.871Z,100565.56
2022-08-20T10:28:40.005Z,100557.22
2022-08-20T10:31:10.162Z,100552.53
2022-08-20T10:33:39.285Z,100561.41
2022-08-20T10:36:09.029Z,100551.22
2022-08-20T10:38:36.686Z,100553.59
2022-08-20T10:41:05.830Z,100554.56
2022-08-20T10:43:34.215Z,100549.19
2022-08-20T10:46:02.392Z,100559.22
2022-08-20T10:48:30.265Z,100559.97
2022-08-20T10:50:58.334Z,100562.50
2022-08-20T10:53:26.729Z,100554.47
2022-08-20T10:55:55.976Z,100559.22
2022-08-20T10:58:24.804Z,100560.25
2022-08-20T11:00:53.203Z,100559.16
2022-08-20T11:03:21.477Z,100555.28
2022-08-20T11:05:49.747Z,100558.81
2022-08-20T11:08:33.210Z,100554.00
2022-08-20T11:11:02.047Z,100553.00
2022-08-20T11:13:30.198Z,100541.91
2022-08-20T11:15:58.190Z,100535.72
2022-08-20T11:18:25.988Z,100538.88
2022-08-20T11:20:54.481Z,100547.50
2022-08-20T11:23:22.418Z,100540.13
2022-08-20T11:25:50.901Z,100540.81
2022-08-20T11:28:31.007Z,100540.78
2022-08-20T11:31:01.047Z,100546.19
2022-08-20T11:33:29.035Z,100533.59
2022-08-20T11:35:57.119Z,100540.41
2022-08-20T11:38:24.859Z,100530.94
2022-08-20T11:40:52.520Z,100536.56
2022-08-20T11:43:20.114Z,100537.66
2022-08-20T11:45:54.884Z,100537.47
2022-08-20T11:48:22.568Z,100541.84
2022-08-20T11:50:50.437Z,100535.09
2022-08-20T11:53:18.278Z,100535.50
2022-08-20T11:55:48.196Z,100531.97
2022-08-20T11:58:15.871Z,100539.63
2022-08-20T12:00:43.650Z,100540.22
2022-08-20T12:03:11.759Z,100539.97
2022-08-20T12:05:45.262Z,100541.03
2022-08-20T12:08:26.704Z,100536.94
2022-08-20T12:10:58.669Z,100533.69
2022-08-20T12:13:39.679Z,100530.34
2022-08-20T12:16:17.583Z,100541.84
2022-08-20T12:18:46.277Z,100536.22
2022-08-20T12:21:14.180Z,100537.28
2022-08-20T12:23:42.058Z,100540.34
2022-08-20T12:26:09.826Z,100526.28
2022-08-20T12:28:37.738Z,100523.94
2022-08-20T12:31:05.409Z,100530.00
2022-08-20T12:33:33.065Z,100524.56
2022-08-20T12:36:01.093Z,100521.47
2022-08-20T12:38:28.834Z,100517.31
2022-08-20T12:40:56.512Z,100517.19
2022-08-20T12:43:25.292Z,100510.53
2022-08-20T12:45:53.524Z,100514.91
2022-08-20T12:48:21.725Z,100514.59
2022-08-20T12:50:50.362Z,100506.75
2022-08-20T12:53:19.063Z,100505.09
2022-08-20T12:55:47.330Z,100504.84
2022-08-20T12:58:14.950Z,100504.75
2022-08-20T13:00:47.250Z,100512.78
2022-08-20T13:03:20.074Z,100503.59
2022-08-20T13:05:49.462Z,100506.88
2022-08-20T13:08:19.175Z,100501.56
2022-08-20T13:10:47.454Z,100503.59
2022-08-20T13:13:20.791Z,100507.88
2022-08-20T13:15:51.895Z,100514.47
2022-08-20T13:18:20.260Z,100503.94
2022-08-20T13:20:48.500Z,100508.53
2022-08-20T13:23:16.383Z,100503.53
2022-08-20T13:25:43.982Z,100503.53
2022-08-20T13:28:11.555Z,100506.56
2022-08-20T13:30:40.962Z,100508.31
2022-08-20T13:33:08.708Z,100495.84
2022-08-20T13:35:36.644Z,100483.53
2022-08-20T13:38:04.288Z,100479.78
2022-08-20T13:40:32.448Z,100484.63
2022-08-20T13:43:05.951Z,100489.00
2022-08-20T13:45:37.011Z,100472.63
2022-08-20T13:48:06.854Z,100468.09
2022-08-20T13:50:42.486Z,100468.44
2022-08-20T13:53:10.637Z,100465.78
2022-08-20T13:55:38.542Z,100463.59
2022-08-20T13:58:08.084Z,100461.63
2022-08-20T14:00:36.633Z,100471.00
2022-08-20T14:03:06.365Z,100468.50
2022-08-20T14:05:35.244Z,100451.47
2022-08-20T14:08:17.991Z,100467.75
2022-08-20T14:10:51.373Z,100462.69
2022-08-20T14:13:22.559Z,100448.13
2022-08-20T14:15:51.285Z,100454.13
2022-08-20T14:18:19.999Z,100452.00
2022-08-20T14:20:47.571Z,100456.75
2022-08-20T14:23:16.178Z,100439.91
2022-08-20T14:25:49.487Z,100441.16
2022-08-20T14:28:20.443Z,100442.72
2022-08-20T14:30:53.063Z,100438.97
2022-08-20T14:33:23.722Z,100440.84
2022-08-20T14:35:53.284Z,100439.47
2022-08-20T14:38:20.983Z,100441.34
2022-08-20T14:40:50.496Z,100439.13
2022-08-20T14:43:18.656Z,100429.44
2022-08-20T14:45:46.292Z,100431.72
2022-08-20T14:48:14.992Z,100429.66
2022-08-20T14:50:43.160Z,100444.78
2022-08-20T14:53:10.772Z,100439.81
2022-08-20T14:55:38.939Z,100438.44
2022-08-20T14:58:09.449Z,100431.16
2022-08-20T15:00:38.029Z,100433.94
2022-08-20T15:03:05.574Z,100431.31
2022-08-20T15:05:34.533Z,100431.28
2022-08-20T15:08:08.145Z,100424.28
2022-08-20T15:10:39.489Z,100424.13
2022-08-20T15:13:07.974Z,100423.47
2022-08-20T15:15:35.527Z,100425.84
2022-08-20T15:18:04.203Z,100419.84
2022-08-20T15:20:33.457Z,100417.81
2022-08-20T15:23:02.385Z,100421.19
2022-08-20T15:25:37.005Z,100417.44
2022-08-20T15:28:08.486Z,100419.47
2022-08-20T15:30:38.111Z,100412.97
2022-08-20T15:33:06.096Z,100417.22
2022-08-20T15:35:34.511Z,100410.41
2022-08-20T15:38:02.203Z,100413.44
2022-08-20T15:40:32.823Z,100415.00
2022-08-20T15:43:03.359Z,100413.31
2022-08-20T15:45:32.050Z,100426.72
2022-08-20T15:48:12.605Z,100425.38
2022-08-20T15:51:02.993Z,100426.84
2022-08-20T15:53:45.637Z,100428.44
2022-08-20T15:56:31.959Z,100432.72
2022-08-20T15:59:05.557Z,100436.16
2022-08-20T16:01:42.659Z,100436.25
2022-08-20T16:04:51.630Z,100423.91
2022-08-20T16:07:37.462Z,100434.81
2022-08-20T16:10:22.041Z,100432.97
2022-08-20T16:12:55.487Z,100430.91
2022-08-20T16:15:33.107Z,100427.91
2022-08-20T16:18:23.275Z,100429.16
2022-08-20T16:20:54.822Z,100422.97
2022-08-20T16:23:30.430Z,100426.81
2022-08-20T16:26:25.868Z,100430.78
2022-08-20T16:29:22.782Z,100417.88
2022-08-20T16:31:59.976Z,100429.41
2022-08-20T16:34:45.483Z,100430.41
2022-08-20T16:37:31.195Z,100428.34
2022-08-20T16:40:26.100Z,100425.00
2022-08-20T16:42:57.363Z,100424.09
2022-08-20T16:45:35.474Z,100423.25
2022-08-20T16:48:06.056Z,100422.03
2022-08-20T16:51:03.152Z,100422.94
2022-08-20T16:53:32.029Z,100423.78
2022-08-20T16:56:00.366Z,100422.97
2022-08-20T16:58:27.937Z,100425.00
2022-08-20T17:01:15.057Z,100427.69
2022-08-20T17:03:50.463Z,100424.22
2022-08-20T17:06:32.205Z,100419.91
2022-08-20T17:09:05.409Z,100422.31
2022-08-20T17:11:36.752Z,100420.97
2022-08-20T17:14:14.732Z,100421.00
2022-08-20T17:16:45.622Z,100422.41
2022-08-20T17:19:34.254Z,100413.81
2022-08-20T17:22:18.046Z,100415.88
2022-08-20T17:24:48.436Z,100411.00
2022-08-20T17:27:33.223Z,100417.94
2022-08-20T17:30:10.766Z,100417.00
2022-08-20T17:33:28.309Z,100425.19
2022-08-20T17:36:04.287Z,100431.13
2022-08-20T17:38:48.053Z,100436.41
2022-08-20T17:41:27.022Z,100434.75
2022-08-20T17:44:07.549Z,100444.66
2022-08-20T17:46:45.825Z,100447.25
2022-08-20T17:49:19.388Z,100452.38
2022-08-20T17:51:54.025Z,100457.19
2022-08-20T17:54:37.983Z,100458.78
2022-08-20T17:57:12.938Z,100459.72
2022-08-20T18:00:00.960Z,100468.84
2022-08-20T18:02:34.350Z,100466.00
2022-08-20T18:05:02.751Z,100466.44
2022-08-20T18:07:40.964Z,100472.16
2022-08-20T18:10:14.915Z,100474.06
2022-08-20T18:13:10.346Z,100470.25
2022-08-20T18:15:45.257Z,100472.78
2022-08-20T18:18:27.831Z,100468.88
2022-08-20T18:21:30.623Z,100464.63
2022-08-20T18:24:07.204Z,100464.28
2022-08-20T18:26:54.185Z,100464.47
2022-08-20T18:29:30.520Z,100465.28
2022-08-20T18:32:07.481Z,100472.09
2022-08-20T18:34:40.775Z,100464.31
2022-08-20T18:37:14.918Z,100474.22
2022-08-20T18:39:46.504Z,100477.41
2022-08-20T18:42:32.210Z,100480.34
2022-08-20T18:45:00.324Z,100489.28
2022-08-20T18:47:32.573Z,100485.41
2022-08-20T18:50:18.193Z,100484.22
2022-08-20T18:52:50.581Z,100487.16
2022-08-20T18:55:32.655Z,100488.22
2022-08-20T18:58:03.589Z,100486.63
2022-08-20T19:00:46.543Z,100495.66
2022-08-20T19:03:19.769Z,100491.84
2022-08-20T19:06:05.907Z,100492.88
2022-08-20T19:08:49.120Z,100494.75
2022-08-20T19:11:50.626Z,100495.03
2022-08-20T19:14:37.212Z,100491.78
2022-08-20T19:17:10.646Z,100491.50
2022-08-20T19:19:39.133Z,100501.38
2022-08-20T19:22:07.207Z,100500.00
2022-08-20T19:24:35.825Z,100506.53
2022-08-20T19:27:07.621Z,100504.75
2022-08-20T19:29:46.402Z,100507.19
2022-08-20T19:32:30.082Z,100505.28
2022-08-20T19:35:01.102Z,100509.41
2022-08-20T19:37:39.751Z,100514.69
2022-08-20T19:40:46.174Z,100515.41
2022-08-20T19:43:19.659Z,100509.78
2022-08-20T19:45:55.915Z,100515.00
2022-08-20T19:48:39.242Z,100515.41
2022-08-20T19:51:40.732Z,100512.28
2022-08-20T19:54:25.461Z,100515.34
2022-08-20T19:56:58.528Z,100521.16
2022-08-20T19:59:26.684Z,100522.25
2022-08-20T20:02:00.217Z,100514.22
2022-08-20T20:04:36.895Z,100511.41
2022-08-20T20:07:16.177Z,100519.69
2022-08-20T20:09:54.266Z,100525.47
2022-08-20T20:12:23.230Z,100521.28
2022-08-20T20:14:55.588Z,100518.25
2022-08-20T20:17:27.642Z,100526.00
2022-08-20T20:19:59.489Z,100520.84
2022-08-20T20:22:34.008Z,100514.88
2022-08-20T20:25:13.361Z,100520.34
2022-08-20T20:27:41.644Z,100511.88
2022-08-20T20:30:12.809Z,100516.03
2022-08-20T20:32:47.284Z,100517.66
2022-08-20T20:35:34.035Z,100514.50
2022-08-20T20:38:35.469Z,100517.66
2022-08-20T20:41:06.122Z,100522.13
2022-08-20T20:43:41.912Z,100513.59
2022-08-20T20:46:29.712Z,100520.63
2022-08-20T20:49:09.448Z,100520.56
2022-08-20T20:51:42.680Z,100519.78
2022-08-20T20:54:28.673Z,100512.97
2022-08-20T20:57:03.983Z,100517.97
2022-08-20T20:59:33.322Z,100519.63
2022-08-20T21:02:02.127Z,100531.81
2022-08-20T21:04:30.352Z,100530.75
2022-08-20T21:07:03.462Z,100532.25
2022-08-20T21:09:31.062Z,100545.88
2022-08-20T21:12:00.161Z,100536.56
2022-08-20T21:14:27.949Z,100547.94
2022-08-20T21:16:58.421Z,100544.63
2022-08-20T21:19:26.756Z,100551.66
2022-08-20T21:21:54.411Z,100549.97
2022-08-20T21:24:22.823Z,100551.25
2022-08-20T21:26:51.876Z,100548.56
2022-08-20T21:29:32.144Z,100557.00
2022-08-20T21:32:01.232Z,100564.03
2022-08-20T21:34:28.775Z,100560.72
2022-08-20T21:36:56.868Z,100562.38
2022-08-20T21:39:26.933Z,100564.22
2022-08-20T21:41:59.263Z,100568.16
2022-08-20T21:44:29.743Z,100564.00
2022-08-20T21:46:59.329Z,100564.41
2022-08-20T21:49:29.480Z,100564.94
2022-08-20T21:51:58.523Z,100572.66
2022-08-20T21:54:27.228Z,100571.63
2022-08-20T21:57:08.215Z,100572.44
2022-08-20T21:59:38.221Z,100577.09
2022-08-20T22:02:06.606Z,100574.78
2022-08-20T22:04:35.612Z,100570.44
2022-08-20T22:07:05.260Z,100564.84
2022-08-20T22:09:33.981Z,100571.44
2022-08-20T22:12:01.818Z,100568.56
2022-08-20T22:14:30.791Z,100571.69
2022-08-20T22:16:58.892Z,100571.72
2022-08-20T22:19:26.394Z,100571.19
2022-08-20T22:21:55.175Z,100573.00
2022-08-20T22:24:24.522Z,100576.25
2022-08-20T22:26:52.366Z,100581.13
2022-08-20T22:29:20.376Z,100584.38
2022-08-20T22:31:48.059Z,100591.59
2022-08-20T22:34:18.676Z,100588.72
2022-08-20T22:36:46.899Z,100586.06
2022-08-20T22:39:14.837Z,100593.09
2022-08-20T22:41:42.522Z,100589.47
2022-08-20T22:44:10.192Z,100583.25
2022-08-20T22:46:45.049Z,100591.44
2022-08-20T22:49:19.148Z,100591.00
2022-08-20T22:51:47.679Z,100585.72
2022-08-20T22:54:20.868Z,100586.56
2022-08-20T22:56:49.391Z,100585.22
2022-08-20T22:59:20.326Z,100577.19
2022-08-20T23:01:48.254Z,100581.31
2022-08-20T23:04:27.470Z,100584.38
2022-08-20T23:06:57.176Z,100587.50
2022-08-20T23:09:25.408Z,100581.25
2022-08-20T23:11:53.442Z,100580.56
2022-08-20T23:14:21.591Z,100573.50
2022-08-20T23:17:09.020Z,100579.22
2022-08-20T23:19:40.233Z,100583.66
2022-08-20T23:22:08.643Z,100591.41
2022-08-20T23:24:37.248Z,100592.16
2022-08-20T23:27:08.768Z,100589.09
2022-08-20T23:29:36.784Z,100591.22
2022-08-20T23:32:04.618Z,100591.59
2022-08-20T23:34:33.376Z,100592.66
2022-08-20T23:37:02.795Z,100582.00
2022-08-20T23:39:31.552Z,100596.84
2022-08-20T23:41:59.764Z,100589.41
2022-08-20T23:44:28.128Z,100587.56
2022-08-20T23:46:58.477Z,100584.06
2022-08-20T23:49:27.937Z,100584.53
2022-08-20T23:51:57.761Z,100575.84
2022-08-20T23:54:25.738Z,100575.34
2022-08-20T23:56:56.783Z,100582.94
2022-08-20T23:59:25.933Z,100586.75
